sensor_id;sensor_type;location;lat;lon;timestamp;P1;durP1;ratioP1;P2;durP2;ratioP2
54191;SDS011;40101;53.002;6.488;2022-07-24T00:02:09;3.50;;;2.90;;
54191;SDS011;40101;53.002;6.488;2022-07-24T00:04:34;13.68;;;3.55;;
54191;SDS011;40101;53.002;6.488;2022-07-24T00:07:01;4.93;;;3.60;;
54191;SDS011;40101;53.002;6.488;2022-07-24T00:09:27;3.40;;;3.10;;
54191;SDS011;40101;53.002;6.488;2022-07-24T00:11:53;3.90;;;3.03;;
54191;SDS011;40101;53.002;6.488;2022-07-24T00:14:18;5.70;;;3.30;;
54191;SDS011;40101;53.002;6.488;2022-07-24T00:16:44;3.95;;;2.90;;
54191;SDS011;40101;53.002;6.488;2022-07-24T00:19:10;5.70;;;2.80;;
54191;SDS011;40101;53.002;6.488;2022-07-24T00:21:35;7.22;;;3.55;;
54191;SDS011;40101;53.002;6.488;2022-07-24T00:24:01;2.83;;;2.50;;
54191;SDS011;40101;53.002;6.488;2022-07-24T00:26:27;5.20;;;2.97;;
54191;SDS011;40101;53.002;6.488;2022-07-24T00:28:53;5.35;;;3.45;;
54191;SDS011;40101;53.002;6.488;2022-07-24T00:31:19;4.28;;;3.30;;
54191;SDS011;40101;53.002;6.488;2022-07-24T00:33:44;11.18;;;3.63;;
54191;SDS011;40101;53.002;6.488;2022-07-24T00:36:11;3.10;;;2.80;;
54191;SDS011;40101;53.002;6.488;2022-07-24T00:38:37;4.25;;;3.35;;
54191;SDS011;40101;53.002;6.488;2022-07-24T00:41:02;5.63;;;3.40;;
54191;SDS011;40101;53.002;6.488;2022-07-24T00:43:28;5.90;;;3.20;;
54191;SDS011;40101;53.002;6.488;2022-07-24T00:45:54;6.45;;;3.40;;
54191;SDS011;40101;53.002;6.488;2022-07-24T00:48:20;4.15;;;3.75;;
54191;SDS011;40101;53.002;6.488;2022-07-24T00:50:45;3.88;;;3.47;;
54191;SDS011;40101;53.002;6.488;2022-07-24T00:53:12;4.90;;;3.60;;
54191;SDS011;40101;53.002;6.488;2022-07-24T00:55:39;4.55;;;3.28;;
54191;SDS011;40101;53.002;6.488;2022-07-24T00:58:06;7.13;;;3.90;;
54191;SDS011;40101;53.002;6.488;2022-07-24T01:00:32;5.40;;;3.53;;
54191;SDS011;40101;53.002;6.488;2022-07-24T01:02:59;6.57;;;3.63;;
54191;SDS011;40101;53.002;6.488;2022-07-24T01:05:25;4.43;;;3.80;;
54191;SDS011;40101;53.002;6.488;2022-07-24T01:07:50;4.13;;;3.60;;
54191;SDS011;40101;53.002;6.488;2022-07-24T01:10:16;5.63;;;4.03;;
54191;SDS011;40101;53.002;6.488;2022-07-24T01:12:42;4.70;;;3.92;;
54191;SDS011;40101;53.002;6.488;2022-07-24T01:15:09;5.68;;;4.57;;
54191;SDS011;40101;53.002;6.488;2022-07-24T01:17:37;5.57;;;4.10;;
54191;SDS011;40101;53.002;6.488;2022-07-24T01:20:05;6.35;;;4.30;;
54191;SDS011;40101;53.002;6.488;2022-07-24T01:22:32;6.82;;;4.57;;
54191;SDS011;40101;53.002;6.488;2022-07-24T01:24:57;8.98;;;4.70;;
54191;SDS011;40101;53.002;6.488;2022-07-24T01:27:24;8.00;;;4.38;;
54191;SDS011;40101;53.002;6.488;2022-07-24T01:29:50;5.05;;;4.55;;
54191;SDS011;40101;53.002;6.488;2022-07-24T01:32:16;4.72;;;4.13;;
54191;SDS011;40101;53.002;6.488;2022-07-24T01:34:43;9.20;;;4.47;;
54191;SDS011;40101;53.002;6.488;2022-07-24T01:37:09;7.40;;;4.43;;
54191;SDS011;40101;53.002;6.488;2022-07-24T01:39:35;6.57;;;4.78;;
54191;SDS011;40101;53.002;6.488;2022-07-24T01:42:01;5.15;;;4.30;;
54191;SDS011;40101;53.002;6.488;2022-07-24T01:44:28;6.97;;;4.78;;
54191;SDS011;40101;53.002;6.488;2022-07-24T01:46:54;10.05;;;5.30;;
54191;SDS011;40101;53.002;6.488;2022-07-24T01:49:20;6.40;;;4.85;;
54191;SDS011;40101;53.002;6.488;2022-07-24T01:51:45;5.90;;;4.93;;
54191;SDS011;40101;53.002;6.488;2022-07-24T01:54:11;5.30;;;4.80;;
54191;SDS011;40101;53.002;6.488;2022-07-24T01:56:37;8.70;;;4.63;;
54191;SDS011;40101;53.002;6.488;2022-07-24T01:59:03;6.93;;;5.43;;
54191;SDS011;40101;53.002;6.488;2022-07-24T02:01:29;9.80;;;5.53;;
54191;SDS011;40101;53.002;6.488;2022-07-24T02:03:54;6.55;;;5.10;;
54191;SDS011;40101;53.002;6.488;2022-07-24T02:06:21;10.05;;;5.22;;
54191;SDS011;40101;53.002;6.488;2022-07-24T02:08:47;6.25;;;5.30;;
54191;SDS011;40101;53.002;6.488;2022-07-24T02:11:13;6.20;;;5.47;;
54191;SDS011;40101;53.002;6.488;2022-07-24T02:13:38;7.45;;;6.35;;
54191;SDS011;40101;53.002;6.488;2022-07-24T02:16:04;8.85;;;5.22;;
54191;SDS011;40101;53.002;6.488;2022-07-24T02:18:30;6.10;;;5.53;;
54191;SDS011;40101;53.002;6.488;2022-07-24T02:20:57;8.05;;;5.72;;
54191;SDS011;40101;53.002;6.488;2022-07-24T02:23:23;7.18;;;5.78;;
54191;SDS011;40101;53.002;6.488;2022-07-24T02:25:49;6.70;;;6.10;;
54191;SDS011;40101;53.002;6.488;2022-07-24T02:28:15;7.60;;;6.43;;
54191;SDS011;40101;53.002;6.488;2022-07-24T02:30:42;6.85;;;5.90;;
54191;SDS011;40101;53.002;6.488;2022-07-24T02:33:08;7.50;;;5.45;;
54191;SDS011;40101;53.002;6.488;2022-07-24T02:35:34;6.85;;;5.53;;
54191;SDS011;40101;53.002;6.488;2022-07-24T02:38:00;7.15;;;5.60;;
54191;SDS011;40101;53.002;6.488;2022-07-24T02:40:27;6.22;;;5.63;;
54191;SDS011;40101;53.002;6.488;2022-07-24T02:42:52;8.63;;;5.72;;
54191;SDS011;40101;53.002;6.488;2022-07-24T02:45:18;7.57;;;6.82;;
54191;SDS011;40101;53.002;6.488;2022-07-24T02:47:48;6.90;;;5.70;;
54191;SDS011;40101;53.002;6.488;2022-07-24T02:50:19;7.82;;;6.18;;
54191;SDS011;40101;53.002;6.488;2022-07-24T02:52:47;8.43;;;6.88;;
54191;SDS011;40101;53.002;6.488;2022-07-24T02:55:13;7.50;;;6.78;;
54191;SDS011;40101;53.002;6.488;2022-07-24T02:57:39;6.57;;;5.97;;
54191;SDS011;40101;53.002;6.488;2022-07-24T03:00:05;8.05;;;6.25;;
54191;SDS011;40101;53.002;6.488;2022-07-24T03:02:34;8.10;;;6.82;;
54191;SDS011;40101;53.002;6.488;2022-07-24T03:05:00;7.40;;;6.70;;
54191;SDS011;40101;53.002;6.488;2022-07-24T03:07:27;7.85;;;6.60;;
54191;SDS011;40101;53.002;6.488;2022-07-24T03:09:53;9.95;;;7.15;;
54191;SDS011;40101;53.002;6.488;2022-07-24T03:12:19;7.45;;;6.75;;
54191;SDS011;40101;53.002;6.488;2022-07-24T03:14:44;8.07;;;7.20;;
54191;SDS011;40101;53.002;6.488;2022-07-24T03:17:10;9.27;;;7.30;;
54191;SDS011;40101;53.002;6.488;2022-07-24T03:19:35;8.43;;;7.15;;
54191;SDS011;40101;53.002;6.488;2022-07-24T03:22:01;7.88;;;6.95;;
54191;SDS011;40101;53.002;6.488;2022-07-24T03:24:27;9.50;;;6.97;;
54191;SDS011;40101;53.002;6.488;2022-07-24T03:26:53;10.43;;;7.35;;
54191;SDS011;40101;53.002;6.488;2022-07-24T03:29:19;7.28;;;6.57;;
54191;SDS011;40101;53.002;6.488;2022-07-24T03:31:44;7.90;;;6.63;;
54191;SDS011;40101;53.002;6.488;2022-07-24T03:34:11;7.65;;;6.95;;
54191;SDS011;40101;53.002;6.488;2022-07-24T03:36:37;8.25;;;6.95;;
54191;SDS011;40101;53.002;6.488;2022-07-24T03:39:03;8.90;;;8.10;;
54191;SDS011;40101;53.002;6.488;2022-07-24T03:41:29;7.80;;;7.03;;
54191;SDS011;40101;53.002;6.488;2022-07-24T03:43:55;8.68;;;7.30;;
54191;SDS011;40101;53.002;6.488;2022-07-24T03:46:21;7.93;;;7.13;;
54191;SDS011;40101;53.002;6.488;2022-07-24T03:48:46;11.48;;;7.30;;
54191;SDS011;40101;53.002;6.488;2022-07-24T03:51:12;8.88;;;7.38;;
54191;SDS011;40101;53.002;6.488;2022-07-24T03:53:38;8.77;;;7.38;;
54191;SDS011;40101;53.002;6.488;2022-07-24T03:56:04;11.63;;;8.07;;
54191;SDS011;40101;53.002;6.488;2022-07-24T03:58:31;8.10;;;7.18;;
54191;SDS011;40101;53.002;6.488;2022-07-24T04:00:57;8.40;;;7.05;;
54191;SDS011;40101;53.002;6.488;2022-07-24T04:03:23;9.55;;;7.55;;
54191;SDS011;40101;53.002;6.488;2022-07-24T04:05:48;8.32;;;6.68;;
54191;SDS011;40101;53.002;6.488;2022-07-24T04:08:14;7.97;;;6.45;;
54191;SDS011;40101;53.002;6.488;2022-07-24T04:10:40;10.82;;;7.03;;
54191;SDS011;40101;53.002;6.488;2022-07-24T04:13:06;7.30;;;6.60;;
54191;SDS011;40101;53.002;6.488;2022-07-24T04:15:32;8.85;;;7.15;;
54191;SDS011;40101;53.002;6.488;2022-07-24T04:17:58;8.73;;;6.65;;
54191;SDS011;40101;53.002;6.488;2022-07-24T04:20:23;7.30;;;6.55;;
54191;SDS011;40101;53.002;6.488;2022-07-24T04:22:49;8.73;;;6.50;;
54191;SDS011;40101;53.002;6.488;2022-07-24T04:25:15;8.07;;;6.30;;
54191;SDS011;40101;53.002;6.488;2022-07-24T04:27:40;8.20;;;6.72;;
54191;SDS011;40101;53.002;6.488;2022-07-24T04:30:08;6.88;;;6.18;;
54191;SDS011;40101;53.002;6.488;2022-07-24T04:32:34;8.85;;;7.10;;
54191;SDS011;40101;53.002;6.488;2022-07-24T04:35:00;6.95;;;6.25;;
54191;SDS011;40101;53.002;6.488;2022-07-24T04:37:25;7.93;;;7.03;;
54191;SDS011;40101;53.002;6.488;2022-07-24T04:39:52;9.27;;;6.78;;
54191;SDS011;40101;53.002;6.488;2022-07-24T04:42:18;8.40;;;6.88;;
54191;SDS011;40101;53.002;6.488;2022-07-24T04:44:43;7.90;;;6.30;;
54191;SDS011;40101;53.002;6.488;2022-07-24T04:47:09;6.93;;;6.28;;
54191;SDS011;40101;53.002;6.488;2022-07-24T04:49:35;7.35;;;6.65;;
54191;SDS011;40101;53.002;6.488;2022-07-24T04:52:01;7.75;;;6.75;;
54191;SDS011;40101;53.002;6.488;2022-07-24T04:54:26;8.75;;;6.45;;
54191;SDS011;40101;53.002;6.488;2022-07-24T04:56:52;6.95;;;6.15;;
54191;SDS011;40101;53.002;6.488;2022-07-24T04:59:18;6.70;;;6.00;;
54191;SDS011;40101;53.002;6.488;2022-07-24T05:01:43;7.43;;;6.40;;
54191;SDS011;40101;53.002;6.488;2022-07-24T05:04:09;8.05;;;7.20;;
54191;SDS011;40101;53.002;6.488;2022-07-24T05:06:35;7.43;;;6.50;;
54191;SDS011;40101;53.002;6.488;2022-07-24T05:09:00;9.80;;;7.22;;
54191;SDS011;40101;53.002;6.488;2022-07-24T05:11:27;6.93;;;6.22;;
54191;SDS011;40101;53.002;6.488;2022-07-24T05:13:52;12.07;;;7.18;;
54191;SDS011;40101;53.002;6.488;2022-07-24T05:16:18;7.35;;;6.32;;
54191;SDS011;40101;53.002;6.488;2022-07-24T05:18:44;9.02;;;7.13;;
54191;SDS011;40101;53.002;6.488;2022-07-24T05:21:09;7.20;;;6.50;;
54191;SDS011;40101;53.002;6.488;2022-07-24T05:23:35;7.95;;;7.15;;
54191;SDS011;40101;53.002;6.488;2022-07-24T05:26:01;6.95;;;6.05;;
54191;SDS011;40101;53.002;6.488;2022-07-24T05:28:27;8.27;;;6.55;;
54191;SDS011;40101;53.002;6.488;2022-07-24T05:30:52;8.90;;;6.38;;
54191;SDS011;40101;53.002;6.488;2022-07-24T05:33:18;6.75;;;5.85;;
54191;SDS011;40101;53.002;6.488;2022-07-24T05:35:44;6.38;;;5.78;;
54191;SDS011;40101;53.002;6.488;2022-07-24T05:38:10;7.10;;;5.72;;
54191;SDS011;40101;53.002;6.488;2022-07-24T05:40:35;8.27;;;5.82;;
54191;SDS011;40101;53.002;6.488;2022-07-24T05:43:01;8.80;;;5.47;;
54191;SDS011;40101;53.002;6.488;2022-07-24T05:45:27;6.97;;;6.15;;
54191;SDS011;40101;53.002;6.488;2022-07-24T05:47:52;10.30;;;6.65;;
54191;SDS011;40101;53.002;6.488;2022-07-24T05:50:18;6.95;;;6.30;;
54191;SDS011;40101;53.002;6.488;2022-07-24T05:52:44;7.18;;;6.47;;
54191;SDS011;40101;53.002;6.488;2022-07-24T05:55:10;6.75;;;6.05;;
54191;SDS011;40101;53.002;6.488;2022-07-24T05:57:36;7.47;;;5.45;;
54191;SDS011;40101;53.002;6.488;2022-07-24T06:00:02;11.95;;;6.18;;
54191;SDS011;40101;53.002;6.488;2022-07-24T06:02:29;9.18;;;5.45;;
54191;SDS011;40101;53.002;6.488;2022-07-24T06:04:54;7.18;;;5.78;;
54191;SDS011;40101;53.002;6.488;2022-07-24T06:07:20;7.45;;;6.25;;
54191;SDS011;40101;53.002;6.488;2022-07-24T06:09:46;6.40;;;5.10;;
54191;SDS011;40101;53.002;6.488;2022-07-24T06:12:11;6.78;;;5.78;;
54191;SDS011;40101;53.002;6.488;2022-07-24T06:14:37;6.82;;;5.65;;
54191;SDS011;40101;53.002;6.488;2022-07-24T06:17:02;7.88;;;5.72;;
54191;SDS011;40101;53.002;6.488;2022-07-24T06:19:28;7.78;;;6.72;;
54191;SDS011;40101;53.002;6.488;2022-07-24T06:21:54;6.20;;;5.60;;
54191;SDS011;40101;53.002;6.488;2022-07-24T06:24:20;7.88;;;6.38;;
54191;SDS011;40101;53.002;6.488;2022-07-24T06:26:46;6.80;;;6.10;;
54191;SDS011;40101;53.002;6.488;2022-07-24T06:29:12;7.95;;;6.50;;
54191;SDS011;40101;53.002;6.488;2022-07-24T06:31:38;7.50;;;6.80;;
54191;SDS011;40101;53.002;6.488;2022-07-24T06:34:04;6.65;;;6.05;;
54191;SDS011;40101;53.002;6.488;2022-07-24T06:36:31;6.78;;;6.18;;
54191;SDS011;40101;53.002;6.488;2022-07-24T06:38:57;9.02;;;7.53;;
54191;SDS011;40101;53.002;6.488;2022-07-24T06:41:22;9.45;;;7.22;;
54191;SDS011;40101;53.002;6.488;2022-07-24T06:43:48;9.55;;;7.25;;
54191;SDS011;40101;53.002;6.488;2022-07-24T06:46:14;7.70;;;6.85;;
54191;SDS011;40101;53.002;6.488;2022-07-24T06:48:39;8.35;;;7.30;;
54191;SDS011;40101;53.002;6.488;2022-07-24T06:51:05;8.95;;;7.78;;
54191;SDS011;40101;53.002;6.488;2022-07-24T06:53:31;9.05;;;8.10;;
54191;SDS011;40101;53.002;6.488;2022-07-24T06:55:56;10.25;;;7.55;;
54191;SDS011;40101;53.002;6.488;2022-07-24T06:58:22;9.13;;;8.18;;
54191;SDS011;40101;53.002;6.488;2022-07-24T07:00:48;8.00;;;7.30;;
54191;SDS011;40101;53.002;6.488;2022-07-24T07:03:14;8.95;;;8.05;;
54191;SDS011;40101;53.002;6.488;2022-07-24T07:05:40;9.18;;;8.20;;
54191;SDS011;40101;53.002;6.488;2022-07-24T07:08:06;8.90;;;7.53;;
54191;SDS011;40101;53.002;6.488;2022-07-24T07:10:32;7.43;;;6.72;;
54191;SDS011;40101;53.002;6.488;2022-07-24T07:12:57;7.78;;;6.88;;
54191;SDS011;40101;53.002;6.488;2022-07-24T07:15:23;7.28;;;6.03;;
54191;SDS011;40101;53.002;6.488;2022-07-24T07:17:49;7.43;;;6.43;;
54191;SDS011;40101;53.002;6.488;2022-07-24T07:20:14;7.28;;;6.57;;
54191;SDS011;40101;53.002;6.488;2022-07-24T07:22:40;9.52;;;6.03;;
54191;SDS011;40101;53.002;6.488;2022-07-24T07:25:07;7.82;;;5.60;;
54191;SDS011;40101;53.002;6.488;2022-07-24T07:27:33;7.95;;;6.43;;
54191;SDS011;40101;53.002;6.488;2022-07-24T07:30:00;7.10;;;5.72;;
54191;SDS011;40101;53.002;6.488;2022-07-24T07:32:26;7.72;;;5.53;;
54191;SDS011;40101;53.002;6.488;2022-07-24T07:34:52;5.60;;;4.80;;
54191;SDS011;40101;53.002;6.488;2022-07-24T07:37:18;8.63;;;4.65;;
54191;SDS011;40101;53.002;6.488;2022-07-24T07:39:44;5.40;;;4.90;;
54191;SDS011;40101;53.002;6.488;2022-07-24T07:42:09;6.68;;;5.00;;
54191;SDS011;40101;53.002;6.488;2022-07-24T07:44:35;5.30;;;4.18;;
54191;SDS011;40101;53.002;6.488;2022-07-24T07:47:01;8.48;;;4.75;;
54191;SDS011;40101;53.002;6.488;2022-07-24T07:49:27;8.07;;;5.05;;
54191;SDS011;40101;53.002;6.488;2022-07-24T07:51:53;5.50;;;4.65;;
54191;SDS011;40101;53.002;6.488;2022-07-24T07:54:19;5.72;;;4.57;;
54191;SDS011;40101;53.002;6.488;2022-07-24T07:56:44;5.57;;;4.00;;
54191;SDS011;40101;53.002;6.488;2022-07-24T07:59:12;4.70;;;3.60;;
54191;SDS011;40101;53.002;6.488;2022-07-24T08:01:38;5.25;;;3.92;;
54191;SDS011;40101;53.002;6.488;2022-07-24T08:04:04;3.20;;;2.90;;
54191;SDS011;40101;53.002;6.488;2022-07-24T08:06:30;4.75;;;3.10;;
54191;SDS011;40101;53.002;6.488;2022-07-24T08:08:55;5.38;;;2.70;;
54191;SDS011;40101;53.002;6.488;2022-07-24T08:11:21;3.78;;;2.92;;
54191;SDS011;40101;53.002;6.488;2022-07-24T08:13:47;2.88;;;2.30;;
54191;SDS011;40101;53.002;6.488;2022-07-24T08:16:13;6.72;;;3.03;;
54191;SDS011;40101;53.002;6.488;2022-07-24T08:18:39;7.57;;;3.03;;
54191;SDS011;40101;53.002;6.488;2022-07-24T08:21:05;2.75;;;2.28;;
54191;SDS011;40101;53.002;6.488;2022-07-24T08:23:31;3.58;;;2.60;;
54191;SDS011;40101;53.002;6.488;2022-07-24T08:25:56;4.78;;;2.80;;
54191;SDS011;40101;53.002;6.488;2022-07-24T08:28:22;3.65;;;2.50;;
54191;SDS011;40101;53.002;6.488;2022-07-24T08:30:49;4.47;;;2.75;;
54191;SDS011;40101;53.002;6.488;2022-07-24T08:33:15;4.05;;;3.05;;
54191;SDS011;40101;53.002;6.488;2022-07-24T08:35:41;3.63;;;3.05;;
54191;SDS011;40101;53.002;6.488;2022-07-24T08:38:07;3.20;;;2.63;;
54191;SDS011;40101;53.002;6.488;2022-07-24T08:40:33;3.95;;;2.80;;
54191;SDS011;40101;53.002;6.488;2022-07-24T08:43:01;3.83;;;2.60;;
54191;SDS011;40101;53.002;6.488;2022-07-24T08:45:28;7.25;;;3.25;;
54191;SDS011;40101;53.002;6.488;2022-07-24T08:47:55;2.78;;;2.40;;
54191;SDS011;40101;53.002;6.488;2022-07-24T08:50:22;2.58;;;2.38;;
54191;SDS011;40101;53.002;6.488;2022-07-24T08:52:48;3.58;;;2.63;;
54191;SDS011;40101;53.002;6.488;2022-07-24T08:55:13;2.72;;;2.53;;
54191;SDS011;40101;53.002;6.488;2022-07-24T08:57:40;2.83;;;2.20;;
54191;SDS011;40101;53.002;6.488;2022-07-24T09:00:06;5.30;;;2.50;;
54191;SDS011;40101;53.002;6.488;2022-07-24T09:02:32;6.38;;;3.75;;
54191;SDS011;40101;53.002;6.488;2022-07-24T09:04:59;3.72;;;2.65;;
54191;SDS011;40101;53.002;6.488;2022-07-24T09:07:27;3.42;;;2.60;;
54191;SDS011;40101;53.002;6.488;2022-07-24T09:12:32;3.58;;;2.25;;
54191;SDS011;40101;53.002;6.488;2022-07-24T09:14:59;3.25;;;2.10;;
54191;SDS011;40101;53.002;6.488;2022-07-24T09:17:26;2.35;;;2.08;;
54191;SDS011;40101;53.002;6.488;2022-07-24T09:19:58;2.90;;;2.15;;
54191;SDS011;40101;53.002;6.488;2022-07-24T09:22:35;3.72;;;2.13;;
54191;SDS011;40101;53.002;6.488;2022-07-24T09:25:04;2.38;;;1.60;;
54191;SDS011;40101;53.002;6.488;2022-07-24T09:27:30;3.08;;;2.08;;
54191;SDS011;40101;53.002;6.488;2022-07-24T09:29:56;2.00;;;1.77;;
54191;SDS011;40101;53.002;6.488;2022-07-24T09:32:22;4.50;;;2.10;;
54191;SDS011;40101;53.002;6.488;2022-07-24T09:34:50;6.25;;;2.13;;
54191;SDS011;40101;53.002;6.488;2022-07-24T09:37:17;6.85;;;2.38;;
54191;SDS011;40101;53.002;6.488;2022-07-24T09:39:44;2.92;;;2.05;;
54191;SDS011;40101;53.002;6.488;2022-07-24T09:42:10;2.30;;;2.10;;
54191;SDS011;40101;53.002;6.488;2022-07-24T09:44:38;2.97;;;1.95;;
54191;SDS011;40101;53.002;6.488;2022-07-24T09:47:08;2.72;;;2.08;;
54191;SDS011;40101;53.002;6.488;2022-07-24T09:49:36;3.08;;;1.77;;
54191;SDS011;40101;53.002;6.488;2022-07-24T09:52:21;2.38;;;1.77;;
54191;SDS011;40101;53.002;6.488;2022-07-24T09:54:57;4.20;;;2.30;;
54191;SDS011;40101;53.002;6.488;2022-07-24T09:57:26;5.20;;;2.00;;
54191;SDS011;40101;53.002;6.488;2022-07-24T09:59:57;3.85;;;1.98;;
54191;SDS011;40101;53.002;6.488;2022-07-24T10:02:25;2.70;;;1.85;;
54191;SDS011;40101;53.002;6.488;2022-07-24T10:04:53;5.85;;;1.52;;
54191;SDS011;40101;53.002;6.488;2022-07-24T10:07:20;1.95;;;1.48;;
54191;SDS011;40101;53.002;6.488;2022-07-24T10:09:47;4.90;;;1.30;;
54191;SDS011;40101;53.002;6.488;2022-07-24T10:12:18;6.82;;;1.90;;
54191;SDS011;40101;53.002;6.488;2022-07-24T10:14:47;4.43;;;2.03;;
54191;SDS011;40101;53.002;6.488;2022-07-24T10:17:16;2.33;;;1.73;;
54191;SDS011;40101;53.002;6.488;2022-07-24T10:22:17;4.80;;;1.98;;
54191;SDS011;40101;53.002;6.488;2022-07-24T10:29:54;2.35;;;1.60;;
54191;SDS011;40101;53.002;6.488;2022-07-24T10:32:23;2.63;;;1.73;;
54191;SDS011;40101;53.002;6.488;2022-07-24T10:34:55;1.83;;;1.73;;
54191;SDS011;40101;53.002;6.488;2022-07-24T10:37:49;2.70;;;1.77;;
54191;SDS011;40101;53.002;6.488;2022-07-24T10:40:22;6.13;;;1.77;;
54191;SDS011;40101;53.002;6.488;2022-07-24T10:43:10;2.97;;;1.70;;
54191;SDS011;40101;53.002;6.488;2022-07-24T10:45:45;2.95;;;1.80;;
54191;SDS011;40101;53.002;6.488;2022-07-24T10:48:44;2.45;;;1.35;;
54191;SDS011;40101;53.002;6.488;2022-07-24T10:51:09;2.50;;;1.48;;
54191;SDS011;40101;53.002;6.488;2022-07-24T10:58:53;3.53;;;1.42;;
54191;SDS011;40101;53.002;6.488;2022-07-24T11:06:48;1.70;;;1.60;;
54191;SDS011;40101;53.002;6.488;2022-07-24T11:09:17;2.70;;;2.05;;
54191;SDS011;40101;53.002;6.488;2022-07-24T11:14:17;1.60;;;1.45;;
54191;SDS011;40101;53.002;6.488;2022-07-24T11:16:50;4.18;;;1.75;;
54191;SDS011;40101;53.002;6.488;2022-07-24T11:21:45;2.70;;;1.55;;
54191;SDS011;40101;53.002;6.488;2022-07-24T11:29:34;2.90;;;1.90;;
54191;SDS011;40101;53.002;6.488;2022-07-24T11:32:07;2.65;;;1.55;;
54191;SDS011;40101;53.002;6.488;2022-07-24T11:34:45;2.92;;;1.38;;
54191;SDS011;40101;53.002;6.488;2022-07-24T11:37:12;2.67;;;1.92;;
54191;SDS011;40101;53.002;6.488;2022-07-24T11:39:39;1.95;;;1.50;;
54191;SDS011;40101;53.002;6.488;2022-07-24T11:42:15;2.45;;;1.38;;
54191;SDS011;40101;53.002;6.488;2022-07-24T11:44:43;2.65;;;1.42;;
54191;SDS011;40101;53.002;6.488;2022-07-24T11:47:11;3.22;;;1.80;;
54191;SDS011;40101;53.002;6.488;2022-07-24T11:49:48;1.88;;;1.45;;
54191;SDS011;40101;53.002;6.488;2022-07-24T11:52:18;2.30;;;2.00;;
54191;SDS011;40101;53.002;6.488;2022-07-24T11:54:53;6.05;;;1.70;;
54191;SDS011;40101;53.002;6.488;2022-07-24T11:57:21;2.28;;;1.55;;
54191;SDS011;40101;53.002;6.488;2022-07-24T11:59:49;1.98;;;1.40;;
54191;SDS011;40101;53.002;6.488;2022-07-24T12:02:16;3.40;;;1.80;;
54191;SDS011;40101;53.002;6.488;2022-07-24T12:04:44;3.38;;;1.95;;
54191;SDS011;40101;53.002;6.488;2022-07-24T12:07:29;2.13;;;1.27;;
54191;SDS011;40101;53.002;6.488;2022-07-24T12:09:55;4.50;;;1.60;;
54191;SDS011;40101;53.002;6.488;2022-07-24T12:12:24;3.28;;;1.50;;
54191;SDS011;40101;53.002;6.488;2022-07-24T12:14:50;1.70;;;1.27;;
54191;SDS011;40101;53.002;6.488;2022-07-24T12:17:17;3.22;;;1.60;;
54191;SDS011;40101;53.002;6.488;2022-07-24T12:19:51;2.38;;;1.70;;
54191;SDS011;40101;53.002;6.488;2022-07-24T12:22:19;2.58;;;1.45;;
54191;SDS011;40101;53.002;6.488;2022-07-24T12:24:46;5.07;;;1.60;;
54191;SDS011;40101;53.002;6.488;2022-07-24T12:27:12;3.25;;;2.03;;
54191;SDS011;40101;53.002;6.488;2022-07-24T12:29:58;2.55;;;1.90;;
54191;SDS011;40101;53.002;6.488;2022-07-24T12:32:24;4.18;;;1.75;;
54191;SDS011;40101;53.002;6.488;2022-07-24T12:34:51;2.50;;;1.48;;
54191;SDS011;40101;53.002;6.488;2022-07-24T12:37:18;2.72;;;1.67;;
54191;SDS011;40101;53.002;6.488;2022-07-24T12:39:46;2.65;;;1.63;;
54191;SDS011;40101;53.002;6.488;2022-07-24T12:42:13;2.20;;;1.67;;
54191;SDS011;40101;53.002;6.488;2022-07-24T12:44:39;3.55;;;1.27;;
54191;SDS011;40101;53.002;6.488;2022-07-24T12:47:10;1.90;;;1.27;;
54191;SDS011;40101;53.002;6.488;2022-07-24T12:49:43;2.17;;;1.52;;
54191;SDS011;40101;53.002;6.488;2022-07-24T12:52:24;1.60;;;1.48;;
54191;SDS011;40101;53.002;6.488;2022-07-24T12:54:53;2.13;;;1.45;;
54191;SDS011;40101;53.002;6.488;2022-07-24T12:57:22;3.50;;;1.88;;
54191;SDS011;40101;53.002;6.488;2022-07-24T12:59:49;2.38;;;1.75;;
54191;SDS011;40101;53.002;6.488;2022-07-24T13:04:46;5.97;;;2.00;;
54191;SDS011;40101;53.002;6.488;2022-07-24T13:07:14;2.05;;;1.80;;
54191;SDS011;40101;53.002;6.488;2022-07-24T13:09:41;3.53;;;1.92;;
54191;SDS011;40101;53.002;6.488;2022-07-24T13:12:07;1.50;;;1.40;;
54191;SDS011;40101;53.002;6.488;2022-07-24T13:14:34;2.80;;;1.52;;
54191;SDS011;40101;53.002;6.488;2022-07-24T13:17:19;3.05;;;1.70;;
54191;SDS011;40101;53.002;6.488;2022-07-24T13:19:49;5.70;;;1.80;;
54191;SDS011;40101;53.002;6.488;2022-07-24T13:22:16;2.30;;;1.88;;
54191;SDS011;40101;53.002;6.488;2022-07-24T13:24:42;4.78;;;1.90;;
54191;SDS011;40101;53.002;6.488;2022-07-24T13:27:10;2.58;;;1.90;;
54191;SDS011;40101;53.002;6.488;2022-07-24T13:29:38;2.05;;;1.83;;
54191;SDS011;40101;53.002;6.488;2022-07-24T13:32:04;2.35;;;1.75;;
54191;SDS011;40101;53.002;6.488;2022-07-24T13:34:32;2.58;;;1.38;;
54191;SDS011;40101;53.002;6.488;2022-07-24T13:36:58;4.45;;;1.83;;
54191;SDS011;40101;53.002;6.488;2022-07-24T13:39:24;4.45;;;1.75;;
54191;SDS011;40101;53.002;6.488;2022-07-24T13:41:49;2.85;;;1.70;;
54191;SDS011;40101;53.002;6.488;2022-07-24T13:44:16;1.80;;;1.70;;
54191;SDS011;40101;53.002;6.488;2022-07-24T13:46:42;2.40;;;1.70;;
54191;SDS011;40101;53.002;6.488;2022-07-24T13:49:08;5.57;;;1.85;;
54191;SDS011;40101;53.002;6.488;2022-07-24T13:51:35;2.97;;;1.67;;
54191;SDS011;40101;53.002;6.488;2022-07-24T13:54:01;2.58;;;1.73;;
54191;SDS011;40101;53.002;6.488;2022-07-24T13:56:27;4.75;;;2.05;;
54191;SDS011;40101;53.002;6.488;2022-07-24T13:58:52;3.40;;;1.92;;
54191;SDS011;40101;53.002;6.488;2022-07-24T14:01:18;3.53;;;1.73;;
54191;SDS011;40101;53.002;6.488;2022-07-24T14:03:46;2.05;;;1.58;;
54191;SDS011;40101;53.002;6.488;2022-07-24T14:06:12;3.13;;;1.67;;
54191;SDS011;40101;53.002;6.488;2022-07-24T14:08:38;3.97;;;1.60;;
54191;SDS011;40101;53.002;6.488;2022-07-24T14:11:06;1.67;;;1.50;;
54191;SDS011;40101;53.002;6.488;2022-07-24T14:13:32;2.97;;;1.70;;
54191;SDS011;40101;53.002;6.488;2022-07-24T14:15:58;2.65;;;1.90;;
54191;SDS011;40101;53.002;6.488;2022-07-24T14:18:24;1.98;;;1.35;;
54191;SDS011;40101;53.002;6.488;2022-07-24T14:20:50;1.63;;;1.50;;
54191;SDS011;40101;53.002;6.488;2022-07-24T14:23:16;3.17;;;1.52;;
54191;SDS011;40101;53.002;6.488;2022-07-24T14:25:46;3.25;;;1.63;;
54191;SDS011;40101;53.002;6.488;2022-07-24T14:28:12;3.42;;;1.80;;
54191;SDS011;40101;53.002;6.488;2022-07-24T14:30:39;5.47;;;1.92;;
54191;SDS011;40101;53.002;6.488;2022-07-24T14:33:04;1.90;;;1.67;;
54191;SDS011;40101;53.002;6.488;2022-07-24T14:35:30;1.83;;;1.42;;
54191;SDS011;40101;53.002;6.488;2022-07-24T14:37:57;2.35;;;1.80;;
54191;SDS011;40101;53.002;6.488;2022-07-24T14:40:23;5.07;;;1.55;;
54191;SDS011;40101;53.002;6.488;2022-07-24T14:42:50;2.10;;;1.60;;
54191;SDS011;40101;53.002;6.488;2022-07-24T14:45:16;2.33;;;2.10;;
54191;SDS011;40101;53.002;6.488;2022-07-24T14:47:42;2.45;;;1.70;;
54191;SDS011;40101;53.002;6.488;2022-07-24T14:52:35;3.95;;;1.60;;
54191;SDS011;40101;53.002;6.488;2022-07-24T14:55:01;1.52;;;0.90;;
54191;SDS011;40101;53.002;6.488;2022-07-24T14:57:27;3.13;;;1.42;;
54191;SDS011;40101;53.002;6.488;2022-07-24T14:59:53;4.15;;;1.63;;
54191;SDS011;40101;53.002;6.488;2022-07-24T15:02:19;1.98;;;1.50;;
54191;SDS011;40101;53.002;6.488;2022-07-24T15:04:44;4.18;;;1.20;;
54191;SDS011;40101;53.002;6.488;2022-07-24T15:07:10;1.70;;;1.50;;
54191;SDS011;40101;53.002;6.488;2022-07-24T15:09:36;2.25;;;1.38;;
54191;SDS011;40101;53.002;6.488;2022-07-24T15:12:02;3.10;;;1.30;;
54191;SDS011;40101;53.002;6.488;2022-07-24T15:14:27;2.00;;;1.45;;
54191;SDS011;40101;53.002;6.488;2022-07-24T15:16:53;4.30;;;2.00;;
54191;SDS011;40101;53.002;6.488;2022-07-24T15:19:19;4.47;;;1.65;;
54191;SDS011;40101;53.002;6.488;2022-07-24T15:21:44;2.70;;;1.65;;
54191;SDS011;40101;53.002;6.488;2022-07-24T15:24:10;3.45;;;1.85;;